Monday, December 17, 2018, 1:01 PM EST
Back to Local

KAFN, Jaffrey Muni-silver Ranch

Location: Jaffrey, NH, United States Lat: 42.8
Local Time: 1:01 PM EST (18:01 GMT) Lon: -72
Time Zone: US/Eastern Elev: 1040 ft

Show me the last for .
Show Decoded

2018-12-17 12:00 METAR KAFN 171700Z AUTO VRB03KT 10SM BKN012 OVC018 01/00 A2955 RMK AO2 T00110000
                 =
2018-12-17 11:52 METAR KAFN 171652Z AUTO 20004KT 10SM FEW008 OVC017 01/01 A2955 RMK AO2 SNB08E19
                 SLP022 P0000 T00110006 =
2018-12-17 10:52 METAR KAFN 171552Z AUTO 24004KT 10SM BKN020 OVC030 01/00 A2958 RMK AO2 SLP032
                 T00110000 =
2018-12-17 10:11 METAR KAFN 171511Z AUTO 20003KT 10SM FEW005 SCT008 OVC020 01/01 A2961 RMK AO2
                 T00060006 =
2018-12-17 09:52 METAR KAFN 171452Z AUTO 00000KT 10SM OVC023 01/01 A2962 RMK AO2 SLP044 60000
                 T00060006 58016 =
2018-12-17 09:33 METAR KAFN 171433Z AUTO 00000KT 10SM SCT006 OVC024 01/01 A2962 RMK AO2 T00060006
                 =
2018-12-17 09:21 METAR KAFN 171421Z AUTO 00000KT 10SM BKN007 BKN017 OVC026 01/01 A2963 RMK AO2
                 T00060006 =
2018-12-17 08:52 METAR KAFN 171352Z AUTO 00000KT 10SM SCT004 BKN015 OVC060 01/00 A2964 RMK AO2
                 SNB1258E36 SLP053 P0000 T00060000 =
2018-12-17 08:40 METAR KAFN 171340Z AUTO 00000KT 8SM FEW006 BKN015 OVC060 01/01 A2964 RMK AO2
                 SNB1258E36 P0000 T00060006 =
2018-12-17 08:33 METAR KAFN 171333Z AUTO 00000KT 5SM -SN BR FEW014 BKN032 OVC060 01/00 A2964 RMK
                 AO2 SNB1258 P0000 T00060000 =
2018-12-17 08:26 METAR KAFN 171326Z AUTO 00000KT 3SM -SN BR FEW014 BKN029 OVC060 00/00 A2965 RMK
                 AO2 SNB1258 P0000 T00000000 =
2018-12-17 07:52 METAR KAFN 171252Z AUTO 00000KT 10SM OVC014 00/00 A2966 RMK AO2 SLP059 T00000000
                 =
2018-12-17 06:52 METAR KAFN 171152Z AUTO 33003KT 10SM SCT008 OVC012 00/M01 A2967 RMK AO2 SLP060
                 60004 70056 I6000 T00001006 10000 20000 56006 =
2018-12-17 06:47 METAR KAFN 171147Z AUTO 36003KT 10SM OVC010 00/00 A2967 RMK AO2 CIG 006V014 =
2018-12-17 05:52 METAR KAFN 171052Z AUTO 01004KT 8SM BKN008 BKN014 OVC039 00/00 A2967 RMK AO2
                 UPB0959E01 SLP060 P0000 T00000000 =
2018-12-17 05:08 METAR KAFN 171008Z AUTO 34003KT 3SM BR BKN006 OVC010 00/00 A2968 RMK AO2
                 UPB0959E01 P0000 T00000000 =
2018-12-17 04:52 METAR KAFN 170952Z AUTO VRB04KT 4SM BR OVC005 00/00 A2968 RMK AO2
                 UPE0854SNB0854E16 SLP067 P0001 I1000 T00000000 =
2018-12-17 04:18 METAR KAFN 170918Z AUTO 34005KT 3SM BR OVC005 00/00 A2969 RMK AO2
                 UPE0854SNB0854E16 P0001 T00000000 =
2018-12-17 03:52 METAR KAFN 170852Z AUTO 36005KT 2 1/2SM UP BR OVC005 00/00 A2970 RMK AO2
                 UPB03E07B18E23B47SNB17E18B23E47 SLP072 P0001 60003 T00000000 58014 =
2018-12-17 03:15 METAR KAFN 170815Z AUTO VRB04KT 2 1/2SM BR OVC005 00/00 A2971 RMK AO2 UPB03E07
                 CIG 003V008 P0000 T00000000 =
2018-12-17 02:59 METAR KAFN 170759Z AUTO VRB04KT 3SM BR OVC005 00/00 A2971 RMK AO2 CIG 003V008
                 T00000000 =
2018-12-17 02:52 METAR KAFN 170752Z AUTO VRB05KT 2 1/2SM BR OVC005 00/00 A2971 RMK AO2 SNE47 CIG
                 003V008 SLP076 P0001 T00000000 =
2018-12-17 02:28 METAR KAFN 170728Z AUTO 00000KT 1 3/4SM -SN BR OVC005 00/00 A2972 RMK AO2 CIG
                 003V008 P0000 T00000000 =
2018-12-17 02:11 METAR KAFN 170711Z AUTO VRB05KT 1 1/2SM -SN BR OVC004 00/00 A2972 RMK AO2 P0000
                 T00000000 =
2018-12-17 01:52 METAR KAFN 170652Z AUTO VRB06KT 1 1/4SM -SN BR OVC004 00/00 A2973 RMK AO2
                 UPE0553SNB0553 SLP082 P0001 T00000000 =
2018-12-17 01:30 METAR KAFN 170630Z AUTO 01004KT 1 1/4SM -SN BR OVC004 00/00 A2973 RMK AO2
                 UPE0553SNB0553 P0001 T00000000 =
2018-12-17 01:11 METAR KAFN 170611Z AUTO VRB03KT 1 3/4SM -SN BR OVC004 00/00 A2973 RMK AO2
                 UPE0553SNB0553 P0000 T00000000 =
2018-12-17 01:02 METAR KAFN 170602Z AUTO VRB05KT 2SM -SN BR OVC004 01/01 A2974 RMK AO2
                 UPE0553SNB0553 P0000 T00060006 =
2018-12-17 00:52 METAR KAFN 170552Z AUTO VRB05KT 4SM UP BR OVC004 01/01 A2974 RMK AO2
                 RAB14E35UPB35FZRAE14 CIG 003V007 SLP086 P0002 60051 I1000 I6012 T00060006 10006
                 20006 56020 =
2018-12-17 00:20 METAR KAFN 170520Z AUTO VRB06KT 6SM -RA BR OVC004 01/01 A2974 RMK AO2
                 RAB14FZRAE14 CIG 003V008 P0001 I1000 T00060006 =
2018-12-16 23:52 METAR KAFN 170452Z AUTO VRB05KT 6SM -FZRA BR OVC004 01/01 A2976 RMK AO2 RAB44E52
                 CIG 003V008 SLP093 P0003 I1001 T00060006 400171022 =
2018-12-16 23:50 METAR KAFN 170450Z AUTO VRB06KT 6SM -RA BR OVC004 01/01 A2976 RMK AO2
                 RAB44FZRAE44 CIG 003V008 P0003 I1001 =
2018-12-16 23:13 METAR KAFN 170413Z AUTO VRB05KT 5SM -FZRA BR OVC004 01/01 A2979 RMK AO2 P0002
                 I1001 T00060006 =
2018-12-16 23:02 METAR KAFN 170402Z AUTO VRB05KT 4SM FZRA BR OVC004 01/01 A2979 RMK AO2 P0001
                 I1000 T00060006 =
2018-12-16 22:52 METAR KAFN 170352Z AUTO VRB06KT 5SM -FZRA BR OVC004 01/01 A2980 RMK AO2
                 RAE0253FZRAB0253 SLP106 P0007 I1002 T00060006 =
2018-12-16 22:20 METAR KAFN 170320Z AUTO 02005KT 6SM -FZRA BR OVC004 01/01 A2982 RMK AO2
                 RAE0253FZRAB0253 P0004 I1001 T00060006 =
2018-12-16 21:59 METAR KAFN 170259Z AUTO VRB05KT 5SM FZRA BR OVC004 01/01 A2983 RMK AO2
                 RAE53FZRAB53 P0001 I1000 T00060006 =
2018-12-16 21:52 METAR KAFN 170252Z AUTO VRB05KT 5SM RA BR OVC004 01/01 A2983 RMK AO2
                 RAB46FZRAE46 SLP117 P0021 60039 I1003 I3009 T00060006 58020 =
2018-12-16 21:27 METAR KAFN 170227Z AUTO VRB04KT 3SM FZRA BR OVC004 01/01 A2984 RMK AO2 CIG
                 003V009 P0015 I1002 T00060006 =
2018-12-16 20:52 METAR KAFN 170152Z AUTO VRB04KT 4SM FZRA BR OVC007 01/01 A2986 RMK AO2 CIG
                 004V009 SLP126 P0014 I1003 T00060006 =
2018-12-16 20:26 METAR KAFN 170126Z AUTO VRB06KT 4SM FZRA BR BKN009 OVC013 01/01 A2987 RMK AO2
                 CIG 005V011 P0007 I1001 T00060006 =
2018-12-16 20:15 METAR KAFN 170115Z AUTO 4SM FZRA BR OVC011 01/01 A2987 RMK AO2 CIG 006V015 P0004
                 I1001 T00060006 =
2018-12-16 19:52 METAR KAFN 170052Z AUTO VRB05KT 6SM -FZRA BR OVC012 01/00 A2988 RMK AO2
                 RAE12FZRAB12 SLP133 P0004 I1003 T00060000 =
2018-12-16 19:18 METAR KAFN 170018Z AUTO 10SM -FZRA OVC013 01/00 A2989 RMK AO2 RAE12FZRAB12 P0001
                 I1001 T00060000 =
2018-12-16 18:52 METAR KAFN 162352Z AUTO VRB04KT 10SM -RA OVC012 01/00 A2989 RMK AO2
                 UPB23E35RAB35 SLP138 P0000 60001 T00060000 10011 20006 58012 =
2018-12-16 17:52 METAR KAFN 162252Z AUTO VRB04KT 10SM OVC011 01/M01 A2992 RMK AO2 SLP147
                 T00111006 =
2018-12-16 16:52 METAR KAFN 162152Z AUTO VRB03KT 10SM OVC011 01/M01 A2992 RMK AO2 SLP147
                 T00111006 =
2018-12-16 15:52 METAR KAFN 162052Z AUTO VRB03KT 10SM OVC010 01/M01 A2993 RMK AO2 SLP152 60001
                 T00111006 56024 =
2018-12-16 14:52 METAR KAFN 161952Z AUTO VRB03KT 10SM OVC010 01/00 A2996 RMK AO2 SLP161 T00110000
                 =
2018-12-16 14:24 METAR KAFN 161924Z AUTO VRB03KT 10SM OVC009 01/00 A2996 RMK AO2 T00110000 =
2018-12-16 13:52 METAR KAFN 161852Z AUTO VRB03KT 10SM OVC011 01/00 A2997 RMK AO2
                 RAB06E39UPB07E08B25E27 SLP167 P0001 T00060000 =

Support USWX by starting your Amazon purchase here.